Time;durP1;ratioP1;P1;durP2;ratioP2;P2;SDS_P1;SDS_P2;PMS_P1;PMS_P2;Temp;Humidity;BMP_temperature;BMP_pressure;BME280_temperature;BME280_humidity;BME280_pressure;Samples;Min_cycle;Max_cycle;Signal;HPM_P1;HPM_P2
2021/12/19 00:00:25;;;;;;;15.38;5.68;;;7.40;99.90;;;;;;4956504;28;20518;-84
2021/12/19 00:08:36;;;;;;;18.48;5.05;;;7.30;99.90;;;;;;4958327;28;20488;-83
2021/12/19 00:11:02;;;;;;;15.85;5.90;;;7.30;99.90;;;;;;4944917;29;20550;-84
2021/12/19 00:13:29;;;;;;;18.25;4.38;;;7.30;99.90;;;;;;4956794;28;20023;-82
2021/12/19 00:15:56;;;;;;;17.58;5.13;;;7.30;99.90;;;;;;4956958;28;20027;-83
2021/12/19 00:18:21;;;;;;;14.90;5.63;;;7.20;99.90;;;;;;4938487;29;20110;-83
2021/12/19 00:20:47;;;;;;;14.30;5.95;;;7.20;99.90;;;;;;4939757;28;20468;-82
2021/12/19 00:23:13;;;;;;;15.88;5.03;;;7.20;99.90;;;;;;4957658;28;20023;-82
2021/12/19 00:25:39;;;;;;;14.20;5.38;;;7.30;99.90;;;;;;4939493;29;20027;-83
2021/12/19 00:28:05;;;;;;;23.55;5.75;;;7.30;99.90;;;;;;4957031;28;20042;-82
2021/12/19 00:30:32;;;;;;;17.38;6.57;;;7.30;99.90;;;;;;4955501;28;20090;-83
2021/12/19 00:32:58;;;;;;;14.15;5.47;;;7.20;99.90;;;;;;4956288;28;20141;-83
2021/12/19 00:35:23;;;;;;;17.50;5.95;;;7.30;99.90;;;;;;4939390;28;20059;-82
2021/12/19 00:37:50;;;;;;;18.05;5.80;;;7.30;99.90;;;;;;4938902;29;20059;-83
2021/12/19 00:40:15;;;;;;;15.93;5.20;;;7.30;99.90;;;;;;4955308;28;20063;-82
2021/12/19 00:42:42;;;;;;;14.27;5.00;;;7.40;99.90;;;;;;4956117;29;20031;-82
2021/12/19 00:45:26;;;;;;;17.35;6.18;;;7.30;99.90;;;;;;4939622;29;20031;-83
2021/12/19 00:47:52;;;;;;;12.30;4.97;;;7.40;99.90;;;;;;4955640;28;20035;-84
2021/12/19 00:50:18;;;;;;;13.55;5.80;;;7.40;99.90;;;;;;4954634;29;20038;-83
2021/12/19 00:52:46;;;;;;;19.90;5.18;;;7.40;99.90;;;;;;4956145;28;20113;-83
2021/12/19 00:55:15;;;;;;;;;;;7.30;99.90;;;;;;4916235;29;20107;-85
2021/12/19 00:57:41;;;;;;;13.23;5.82;;;7.30;99.90;;;;;;4915563;29;19918;-83
2021/12/19 01:00:08;;;;;;;15.95;5.57;;;7.20;99.90;;;;;;4915540;29;20040;-81
2021/12/19 01:02:35;;;;;;;15.98;6.47;;;7.20;99.90;;;;;;4899330;29;20226;-82
2021/12/19 01:05:01;;;;;;;22.77;6.40;;;7.20;99.90;;;;;;4912760;29;20183;-85
2021/12/19 01:07:27;;;;;;;18.80;6.40;;;7.20;99.90;;;;;;4913172;29;20131;-83
2021/12/19 01:09:53;;;;;;;18.33;6.03;;;7.20;99.90;;;;;;4915564;29;20061;-82
2021/12/19 01:12:19;;;;;;;21.25;6.82;;;7.20;99.90;;;;;;4916105;29;20036;-82
2021/12/19 01:14:45;;;;;;;19.33;5.82;;;7.30;99.90;;;;;;4916638;29;20465;-81
2021/12/19 01:17:11;;;;;;;18.35;5.53;;;7.30;99.90;;;;;;4916202;29;20135;-82
2021/12/19 01:19:37;;;;;;;12.98;5.28;;;7.20;99.90;;;;;;4915780;29;20036;-81
2021/12/19 01:22:04;;;;;;;10.98;4.75;;;7.20;99.90;;;;;;4917082;29;20042;-82
2021/12/19 01:24:31;;;;;;;16.48;5.13;;;7.20;99.90;;;;;;4914173;29;20059;-83
2021/12/19 01:26:57;;;;;;;11.23;4.85;;;7.20;99.90;;;;;;4917628;29;20440;-82
2021/12/19 01:29:22;;;;;;;12.65;4.55;;;7.20;99.90;;;;;;4916670;29;20095;-83
2021/12/19 01:31:48;;;;;;;18.08;5.05;;;7.20;99.90;;;;;;4939568;28;20384;-82
2021/12/19 01:34:14;;;;;;;10.38;4.22;;;7.20;99.90;;;;;;4976597;28;20064;-82
2021/12/19 01:36:43;;;;;;;10.13;4.43;;;7.30;99.90;;;;;;4961809;28;20011;-81
2021/12/19 01:39:11;;;;;;;11.40;4.63;;;7.20;99.90;;;;;;4979103;28;20050;-82
2021/12/19 01:41:47;;;;;;;12.60;4.55;;;7.20;99.90;;;;;;4979891;28;20023;-80
2021/12/19 01:44:12;;;;;;;14.07;4.80;;;7.20;99.90;;;;;;4980861;28;20020;-80
2021/12/19 01:46:38;;;;;;;8.40;3.67;;;7.20;99.90;;;;;;4980477;28;20079;-80
2021/12/19 01:49:04;;;;;;;8.43;3.17;;;7.20;99.90;;;;;;4980772;28;20075;-82
2021/12/19 01:51:31;;;;;;;9.60;4.15;;;7.20;99.90;;;;;;4964321;28;20050;-80
2021/12/19 01:53:56;;;;;;;8.20;3.75;;;7.20;99.90;;;;;;4963285;28;20006;-81
2021/12/19 01:56:23;;;;;;;14.50;4.07;;;7.20;99.90;;;;;;4980314;28;20019;-82
2021/12/19 01:58:49;;;;;;;14.43;4.43;;;7.20;99.90;;;;;;4979485;28;20015;-81
2021/12/19 02:01:15;;;;;;;7.03;3.55;;;7.20;99.90;;;;;;4963945;29;20035;-82
2021/12/19 02:03:41;;;;;;;11.02;3.72;;;7.20;99.90;;;;;;4961699;28;20027;-80
2021/12/19 02:06:06;;;;;;;10.88;3.67;;;7.10;99.90;;;;;;4963956;28;20038;-80
2021/12/19 02:08:32;;;;;;;7.68;3.67;;;7.20;99.90;;;;;;4963771;28;20051;-80
2021/12/19 02:10:58;;;;;;;7.30;2.95;;;7.10;99.90;;;;;;4979572;28;20038;-79
2021/12/19 02:13:24;;;;;;;4.38;2.20;;;7.20;99.90;;;;;;4979998;28;20027;-80
2021/12/19 02:15:50;;;;;;;6.88;2.45;;;7.20;99.90;;;;;;4963558;28;20019;-81
2021/12/19 02:18:19;;;;;;;5.65;2.30;;;7.20;99.90;;;;;;4962685;28;20029;-80
2021/12/19 02:20:53;;;;;;;3.72;1.90;;;7.20;99.90;;;;;;4977707;28;20020;-80
2021/12/19 02:23:21;;;;;;;7.43;1.83;;;7.30;99.90;;;;;;4962827;28;20026;-80
2021/12/19 02:25:47;;;;;;;5.40;1.70;;;7.20;99.90;;;;;;4978536;28;20014;-79
2021/12/19 02:28:13;;;;;;;3.38;1.58;;;7.20;99.90;;;;;;4958023;28;20055;-80
2021/12/19 02:30:41;;;;;;;1.35;1.10;;;7.20;99.90;;;;;;4963269;28;20011;-81
2021/12/19 02:33:11;;;;;;;1.08;0.70;;;7.20;99.90;;;;;;4963649;28;20047;-81
2021/12/19 02:35:38;;;;;;;3.60;1.48;;;7.20;99.90;;;;;;4963595;29;20004;-81
2021/12/19 02:48:47;;;;;;;3.00;1.35;;;7.10;99.90;;;;;;4979543;28;20039;-81
2021/12/19 02:51:13;;;;;;;2.25;1.10;;;7.20;99.90;;;;;;4963167;28;20003;-81
2021/12/19 02:53:42;;;;;;;3.33;1.48;;;7.20;99.90;;;;;;4980766;28;20039;-81
2021/12/19 02:56:10;;;;;;;3.75;1.55;;;7.20;99.90;;;;;;4962248;28;20047;-81
2021/12/19 02:58:39;;;;;;;4.25;1.58;;;7.20;99.90;;;;;;4979329;28;20011;-81
2021/12/19 03:01:08;;;;;;;5.13;1.85;;;7.30;99.90;;;;;;4978918;28;20042;-81
2021/12/19 03:03:33;;;;;;;4.35;1.60;;;7.30;99.90;;;;;;4980277;28;20031;-82
2021/12/19 03:05:59;;;;;;;6.10;1.63;;;7.30;99.90;;;;;;4976732;28;20024;-80
2021/12/19 03:08:25;;;;;;;3.65;1.88;;;7.40;99.90;;;;;;4979296;28;20035;-79
2021/12/19 03:18:55;;;;;;;4.13;2.10;;;7.40;99.90;;;;;;4979382;28;20045;-82
2021/12/19 03:21:24;;;;;;;6.53;1.80;;;7.50;99.90;;;;;;4965789;29;20039;-80
2021/12/19 03:23:50;;;;;;;5.57;2.08;;;7.50;99.90;;;;;;4965225;28;20453;-82
2021/12/19 03:26:15;;;;;;;6.55;2.28;;;7.50;99.90;;;;;;4982780;28;20023;-81
2021/12/19 03:28:41;;;;;;;3.42;2.03;;;7.60;99.90;;;;;;4949567;29;20050;-81
2021/12/19 03:31:07;;;;;;;5.57;2.58;;;7.60;99.90;;;;;;4961393;28;20035;-82
2021/12/19 03:33:35;;;;;;;5.80;2.38;;;7.60;99.90;;;;;;4948123;29;20047;-83
2021/12/19 03:36:01;;;;;;;;;;;7.70;99.90;;;;;;4949114;29;20027;-82
2021/12/19 03:38:27;;;;;;;3.92;1.83;;;7.80;99.90;;;;;;4958698;28;19910;-82
2021/12/19 03:41:07;;;;;;;4.40;2.42;;;7.70;99.90;;;;;;4932816;29;20023;-82
2021/12/19 03:43:33;;;;;;;4.22;1.98;;;7.70;99.90;;;;;;4943334;29;20019;-81
2021/12/19 03:45:59;;;;;;;8.40;1.63;;;7.80;99.90;;;;;;4965865;28;20510;-82
2021/12/19 03:48:24;;;;;;;3.35;1.95;;;7.80;99.90;;;;;;4935363;29;20034;-81
2021/12/19 03:50:50;;;;;;;3.20;1.50;;;7.90;99.90;;;;;;4941346;28;20495;-82
2021/12/19 03:53:18;;;;;;;1.55;1.15;;;7.90;99.90;;;;;;4940907;28;20098;-81
2021/12/19 03:55:44;;;;;;;;;;;7.90;99.90;;;;;;4940771;29;20031;-81
2021/12/19 03:58:09;;;;;;;4.57;1.50;;;7.80;99.90;;;;;;4949373;28;19911;-82
2021/12/19 04:00:37;;;;;;;3.42;1.73;;;7.80;99.90;;;;;;4933126;29;20037;-81
2021/12/19 04:03:06;;;;;;;4.37;1.87;;;7.80;99.90;;;;;;4939959;29;20031;-82
2021/12/19 04:05:33;;;;;;;5.28;2.05;;;7.80;99.90;;;;;;4939524;28;20479;-84
2021/12/19 04:07:59;;;;;;;5.85;1.90;;;7.70;99.90;;;;;;4946869;28;20119;-83
2021/12/19 04:10:27;;;;;;;3.60;1.80;;;7.70;99.90;;;;;;4956034;28;20059;-84
2021/12/19 04:12:54;;;;;;;5.30;2.10;;;7.70;99.90;;;;;;4939374;29;20030;-84
2021/12/19 04:15:21;;;;;;;3.50;1.60;;;7.70;99.90;;;;;;4937104;28;20031;-82
2021/12/19 04:17:47;;;;;;;4.68;2.10;;;7.80;99.90;;;;;;4940249;29;20476;-82
2021/12/19 04:20:15;;;;;;;6.07;2.42;;;7.70;99.90;;;;;;4953834;28;20042;-84
2021/12/19 04:22:42;;;;;;;4.75;2.28;;;7.80;99.90;;;;;;4939245;29;20407;-83
2021/12/19 04:25:10;;;;;;;7.53;2.67;;;7.80;99.90;;;;;;4938174;29;20514;-83
2021/12/19 04:27:36;;;;;;;7.82;2.47;;;7.80;99.90;;;;;;4957417;28;20128;-82
2021/12/19 04:30:05;;;;;;;5.80;2.28;;;7.80;99.90;;;;;;4957187;28;20027;-83
2021/12/19 04:32:35;;;;;;;7.35;2.50;;;7.80;99.90;;;;;;4939636;29;20029;-82
2021/12/19 04:35:01;;;;;;;3.92;2.35;;;7.90;99.90;;;;;;4939779;29;20051;-83
2021/12/19 04:44:06;;;;;;;6.22;2.05;;;7.90;99.90;;;;;;4963364;28;20042;-83
2021/12/19 04:51:38;;;;;;;4.63;2.05;;;7.90;99.90;;;;;;4956452;29;20529;-82
2021/12/19 04:54:20;;;;;;;5.03;2.30;;;7.90;99.90;;;;;;4952272;29;20035;-83
2021/12/19 05:02:45;;;;;;;4.90;2.40;;;7.80;99.90;;;;;;4956317;28;20094;-84
2021/12/19 05:15:44;;;;;;;16.10;5.70;;;7.80;99.90;;;;;;4956144;28;20054;-84
2021/12/19 05:18:10;;;;;;;9.43;4.97;;;7.90;99.90;;;;;;4955730;29;20024;-82
2021/12/19 05:20:37;;;;;;;14.82;4.55;;;7.90;99.90;;;;;;4955607;29;20102;-83
2021/12/19 05:23:19;;;;;;;11.60;4.05;;;7.90;99.90;;;;;;4956472;28;20027;-84
2021/12/19 05:25:45;;;;;;;5.97;3.45;;;8.00;99.90;;;;;;4938660;28;20031;-84
2021/12/19 05:28:11;;;;;;;7.70;2.65;;;8.00;99.90;;;;;;4943814;29;20047;-83
2021/12/19 05:30:37;;;;;;;12.07;3.33;;;7.80;99.90;;;;;;4938828;29;20067;-84
2021/12/19 05:33:05;;;;;;;5.97;2.85;;;7.90;99.90;;;;;;4937847;29;20045;-83
2021/12/19 05:46:29;;;;;;;18.73;6.55;;;7.80;99.90;;;;;;4961031;28;20045;-84
2021/12/19 05:48:55;;;;;;;17.58;7.28;;;7.80;99.90;;;;;;4963233;28;20028;-83
2021/12/19 05:51:21;;;;;;;17.30;7.45;;;7.80;99.90;;;;;;4952862;28;20192;-83
2021/12/19 05:53:47;;;;;;;18.83;8.10;;;7.80;99.90;;;;;;4943402;28;20070;-82
2021/12/19 05:56:12;;;;;;;22.25;7.72;;;7.80;99.90;;;;;;4938075;29;20042;-84
2021/12/19 05:58:38;;;;;;;21.95;7.63;;;7.80;99.90;;;;;;4955410;28;20476;-84
2021/12/19 06:01:04;;;;;;;20.73;6.88;;;7.90;99.90;;;;;;4955042;29;20502;-85
2021/12/19 06:03:30;;;;;;;23.00;7.22;;;7.80;99.90;;;;;;4955317;29;20044;-84
2021/12/19 06:05:56;;;;;;;21.70;7.82;;;7.70;99.90;;;;;;4937684;29;20019;-84
2021/12/19 06:08:21;;;;;;;22.30;7.38;;;7.80;99.90;;;;;;4928978;29;20063;-84
2021/12/19 06:10:47;;;;;;;20.65;7.25;;;7.80;99.90;;;;;;4936647;29;20535;-84
2021/12/19 06:13:12;;;;;;;18.83;7.20;;;7.80;99.90;;;;;;4955696;28;20024;-84
2021/12/19 06:15:38;;;;;;;19.25;6.50;;;7.80;99.90;;;;;;4937472;29;20020;-82
2021/12/19 06:18:04;;;;;;;19.40;7.45;;;7.80;99.90;;;;;;4954574;29;20035;-83
2021/12/19 06:20:31;;;;;;;19.65;7.65;;;7.90;99.90;;;;;;4934605;28;20041;-85
2021/12/19 06:22:58;;;;;;;15.63;7.05;;;7.90;99.90;;;;;;4952498;29;20038;-83
2021/12/19 06:25:24;;;;;;;22.30;6.32;;;7.90;99.90;;;;;;4967143;28;20111;-85
2021/12/19 06:27:50;;;;;;;15.45;5.78;;;7.90;99.90;;;;;;4954851;29;20049;-84
2021/12/19 06:30:16;;;;;;;16.98;7.15;;;7.80;99.90;;;;;;4936368;29;20503;-83
2021/12/19 06:32:42;;;;;;;16.67;5.57;;;7.90;99.90;;;;;;4937265;29;20016;-83
2021/12/19 06:35:18;;;;;;;17.55;6.40;;;7.80;99.90;;;;;;4954990;28;20023;-83
2021/12/19 06:37:45;;;;;;;14.43;6.80;;;7.90;99.90;;;;;;4954997;29;20035;-82
2021/12/19 06:40:14;;;;;;;17.15;6.05;;;7.90;99.90;;;;;;4938782;28;20051;-84
2021/12/19 06:42:39;;;;;;;23.98;7.65;;;7.90;99.90;;;;;;4944057;29;20023;-84
2021/12/19 06:45:06;;;;;;;15.00;7.30;;;7.90;99.90;;;;;;4958326;28;20046;-82
2021/12/19 06:47:31;;;;;;;21.08;7.30;;;7.90;99.90;;;;;;4940972;29;20451;-83
2021/12/19 06:49:58;;;;;;;16.83;7.28;;;7.90;99.90;;;;;;4958686;28;20031;-82
2021/12/19 06:52:26;;;;;;;11.33;5.97;;;8.00;99.90;;;;;;4937851;29;20514;-85
2021/12/19 06:54:52;;;;;;;9.93;4.88;;;8.00;99.90;;;;;;4958397;28;20023;-83
2021/12/19 06:57:18;;;;;;;17.63;5.05;;;8.00;99.90;;;;;;4958462;29;20101;-84
2021/12/19 06:59:43;;;;;;;8.68;3.65;;;7.90;99.90;;;;;;4940723;29;20038;-84
2021/12/19 07:02:13;;;;;;;6.07;2.80;;;7.90;99.90;;;;;;4966973;28;20028;-83
2021/12/19 07:04:41;;;;;;;10.02;2.85;;;7.90;99.90;;;;;;4940656;29;20504;-83
2021/12/19 07:07:07;;;;;;;5.85;2.30;;;8.00;99.90;;;;;;4935725;29;20032;-83
2021/12/19 07:09:32;;;;;;;6.60;2.17;;;7.90;99.90;;;;;;4942212;29;20031;-84
2021/12/19 07:11:58;;;;;;;6.80;2.35;;;7.80;99.90;;;;;;4958004;28;20055;-84
2021/12/19 07:14:23;;;;;;;8.18;2.78;;;7.80;99.90;;;;;;4941153;29;20102;-83
2021/12/19 07:16:49;;;;;;;6.50;2.30;;;7.80;99.90;;;;;;4957963;29;20054;-84
2021/12/19 07:19:15;;;;;;;7.00;2.63;;;7.80;99.90;;;;;;4939712;29;20046;-83
2021/12/19 07:21:41;;;;;;;2.97;2.10;;;7.80;99.90;;;;;;4940334;29;20507;-82
2021/12/19 07:24:06;;;;;;;5.03;1.95;;;7.80;99.90;;;;;;4940577;29;20035;-82
2021/12/19 07:26:34;;;;;;;5.93;2.38;;;7.70;99.90;;;;;;4957308;29;20027;-85
2021/12/19 07:29:00;;;;;;;4.85;2.38;;;7.70;99.90;;;;;;4923907;29;20130;-84
2021/12/19 07:31:29;;;;;;;6.75;2.28;;;7.70;99.90;;;;;;4955954;29;20155;-83
2021/12/19 07:33:55;;;;;;;7.47;1.65;;;7.60;99.90;;;;;;4957633;29;20027;-83
2021/12/19 07:36:24;;;;;;;13.13;2.45;;;7.60;99.90;;;;;;4957533;29;20034;-84
2021/12/19 07:38:56;;;;;;;8.50;2.17;;;7.70;99.90;;;;;;4941275;28;20026;-83
2021/12/19 07:41:22;;;;;;;4.25;2.22;;;7.70;99.90;;;;;;4940304;29;20075;-81
2021/12/19 07:43:51;;;;;;;3.03;2.17;;;7.70;99.90;;;;;;4957395;29;20465;-83
2021/12/19 07:46:17;;;;;;;5.75;2.05;;;7.70;99.90;;;;;;4957826;28;20040;-84
2021/12/19 07:48:43;;;;;;;7.80;2.47;;;7.70;99.90;;;;;;4935252;29;20043;-85
2021/12/19 07:51:09;;;;;;;5.32;2.05;;;7.80;99.90;;;;;;4946894;29;20391;-84
2021/12/19 07:53:34;;;;;;;4.78;2.58;;;7.80;99.90;;;;;;4954406;29;20444;-83
2021/12/19 07:56:00;;;;;;;6.78;2.40;;;7.80;99.90;;;;;;4946580;28;20022;-84
2021/12/19 07:58:26;;;;;;;9.20;2.30;;;7.80;99.90;;;;;;4953963;28;20024;-83
2021/12/19 08:00:52;;;;;;;5.88;2.58;;;7.80;99.90;;;;;;4955143;29;20027;-83
2021/12/19 08:03:17;;;;;;;5.97;2.22;;;7.90;99.90;;;;;;4939821;29;20027;-83
2021/12/19 08:05:43;;;;;;;6.25;2.60;;;7.90;99.90;;;;;;4968858;28;20030;-82
2021/12/19 08:08:11;;;;;;;5.53;2.97;;;7.90;99.90;;;;;;4952880;28;20114;-83
2021/12/19 08:13:09;;;;;;;4.85;2.33;;;7.90;99.90;;;;;;4957362;28;20035;-84
2021/12/19 08:15:36;;;;;;;2.65;1.52;;;8.00;99.90;;;;;;4959622;28;20077;-83
2021/12/19 08:18:04;;;;;;;4.38;1.15;;;8.00;99.90;;;;;;4971298;28;20019;-83
2021/12/19 08:20:30;;;;;;;1.30;0.90;;;8.00;99.90;;;;;;4956883;29;20377;-83
2021/12/19 08:22:56;;;;;;;1.27;1.00;;;8.00;99.90;;;;;;4939542;29;20042;-83
2021/12/19 08:25:24;;;;;;;1.23;0.88;;;7.90;99.90;;;;;;4956900;28;20114;-82
2021/12/19 08:27:50;;;;;;;2.45;0.90;;;7.90;99.90;;;;;;4939132;29;20051;-84
2021/12/19 08:30:16;;;;;;;1.58;0.80;;;7.90;99.90;;;;;;4959879;28;20050;-83
2021/12/19 08:32:42;;;;;;;0.77;0.77;;;7.90;99.90;;;;;;4946218;29;20046;-84
2021/12/19 08:35:09;;;;;;;2.13;1.05;;;7.90;99.90;;;;;;4945752;29;20500;-83
2021/12/19 08:37:35;;;;;;;1.30;0.80;;;8.00;99.90;;;;;;4949755;28;20034;-82
2021/12/19 08:40:04;;;;;;;1.58;1.17;;;8.00;99.90;;;;;;4958549;28;20401;-82
2021/12/19 08:42:32;;;;;;;1.85;1.02;;;8.00;99.90;;;;;;4963492;28;20027;-82
2021/12/19 08:44:58;;;;;;;1.35;0.93;;;8.00;99.90;;;;;;4926939;29;20067;-82
2021/12/19 08:47:23;;;;;;;2.58;1.25;;;8.00;99.90;;;;;;4956362;28;20038;-84
2021/12/19 08:49:49;;;;;;;3.50;1.17;;;8.00;99.90;;;;;;4939143;28;20416;-82
2021/12/19 08:52:16;;;;;;;1.63;1.17;;;8.10;99.90;;;;;;4957333;28;20023;-82
2021/12/19 08:54:41;;;;;;;2.15;1.20;;;8.00;99.90;;;;;;4950077;28;20039;-82
2021/12/19 08:57:07;;;;;;;2.60;1.85;;;8.10;99.90;;;;;;4942746;29;20034;-83
2021/12/19 08:59:33;;;;;;;2.92;1.30;;;8.10;99.90;;;;;;4939349;29;20479;-83
2021/12/19 09:02:01;;;;;;;2.08;1.25;;;8.10;99.90;;;;;;4939138;29;20458;-82
2021/12/19 09:04:30;;;;;;;4.30;1.42;;;8.10;99.90;;;;;;4935553;28;20039;-83
2021/12/19 09:06:56;;;;;;;2.22;1.23;;;8.10;99.90;;;;;;4953246;28;20047;-83
2021/12/19 09:09:23;;;;;;;1.08;0.98;;;8.00;99.90;;;;;;4955890;28;20023;-82
2021/12/19 09:11:49;;;;;;;2.97;1.30;;;8.00;99.90;;;;;;4935963;29;20043;-84
2021/12/19 09:14:15;;;;;;;1.73;1.33;;;8.10;99.90;;;;;;4958697;28;20546;-83
2021/12/19 09:16:41;;;;;;;1.75;1.48;;;8.10;99.90;;;;;;4956165;28;20050;-83
2021/12/19 09:19:07;;;;;;;1.00;0.90;;;8.10;99.90;;;;;;4953570;28;20066;-84
2021/12/19 09:21:33;;;;;;;5.07;1.10;;;8.10;99.90;;;;;;4951209;29;20053;-85
2021/12/19 09:24:00;;;;;;;3.90;1.13;;;8.20;99.90;;;;;;4938303;28;20031;-83
2021/12/19 09:26:26;;;;;;;2.75;1.13;;;8.10;99.90;;;;;;4938555;29;20027;-84
2021/12/19 09:28:51;;;;;;;1.67;1.33;;;8.20;99.90;;;;;;4951411;29;20035;-84
2021/12/19 09:31:21;;;;;;;6.57;1.45;;;8.30;99.90;;;;;;4960225;28;20023;-83
2021/12/19 09:33:46;;;;;;;3.95;1.15;;;8.30;99.90;;;;;;4939983;28;20022;-86
2021/12/19 09:36:12;;;;;;;2.15;1.10;;;8.30;99.90;;;;;;4961109;28;20027;-85
2021/12/19 09:38:38;;;;;;;2.97;1.08;;;8.20;99.90;;;;;;4936463;28;20031;-84
2021/12/19 09:41:14;;;;;;;1.85;1.08;;;8.20;99.90;;;;;;4940789;29;20043;-84
2021/12/19 09:43:44;;;;;;;2.00;1.35;;;8.20;99.90;;;;;;4940113;29;20058;-83
2021/12/19 09:46:31;;;;;;;2.33;1.02;;;8.20;99.90;;;;;;4959362;28;20040;-84
2021/12/19 09:48:57;;;;;;;2.60;0.73;;;8.20;99.90;;;;;;4946757;29;20034;-84
2021/12/19 09:51:23;;;;;;;3.42;1.15;;;8.20;99.90;;;;;;4901695;29;20040;-83
2021/12/19 09:53:50;;;;;;;1.80;0.82;;;8.20;99.90;;;;;;4904205;29;20028;-84
2021/12/19 09:56:15;;;;;;;3.35;1.23;;;8.10;99.90;;;;;;4904650;29;20044;-84
2021/12/19 09:58:42;;;;;;;4.25;1.40;;;8.10;99.90;;;;;;4923035;29;20040;-83
2021/12/19 10:01:10;;;;;;;2.60;1.60;;;8.10;99.90;;;;;;4929987;29;20040;-84
2021/12/19 10:03:36;;;;;;;;;;;8.20;99.90;;;;;;4915128;29;20090;-84
2021/12/19 10:06:22;;;;;;;5.80;1.92;;;8.20;99.90;;;;;;4898828;29;19912;-85
2021/12/19 10:09:06;;;;;;;2.83;2.00;;;8.20;99.90;;;;;;4900205;29;20048;-83
2021/12/19 10:12:22;;;;;;;1.92;1.73;;;8.10;99.90;;;;;;4906761;29;20071;-84
2021/12/19 10:14:35;;;;;;;2.38;1.73;;;8.20;99.90;;;;;;4910464;29;20046;-83
2021/12/19 10:17:06;;;;;;;6.30;2.50;;;8.20;99.90;;;;;;4918029;29;20527;-86
2021/12/19 10:19:55;;;;;;;5.57;1.88;;;8.20;99.90;;;;;;4915749;29;20036;-85
2021/12/19 10:22:34;;;;;;;7.18;2.45;;;8.30;99.90;;;;;;4920448;29;20496;-81
2021/12/19 10:25:23;;;;;;;4.43;1.95;;;8.30;99.90;;;;;;4939984;29;20388;-84
2021/12/19 10:28:03;;;;;;;5.78;2.20;;;8.30;99.90;;;;;;4953405;29;20027;-84
2021/12/19 10:30:32;;;;;;;4.80;2.25;;;8.40;99.90;;;;;;4955573;28;20026;-83
2021/12/19 10:33:17;;;;;;;3.58;1.92;;;8.40;99.90;;;;;;4942071;28;20050;-84
2021/12/19 10:35:54;;;;;;;5.88;2.70;;;8.40;99.90;;;;;;4940850;28;20035;-85
2021/12/19 10:38:25;;;;;;;14.40;2.93;;;8.50;99.90;;;;;;4941273;29;20116;-88
2021/12/19 10:40:54;;;;;;;6.32;2.95;;;8.50;99.90;;;;;;4977011;28;20019;-85
2021/12/19 10:43:26;;;;;;;6.30;2.58;;;8.50;99.90;;;;;;4977358;28;20055;-86
2021/12/19 10:45:57;;;;;;;3.65;2.70;;;8.50;99.90;;;;;;4982263;28;20023;-85
2021/12/19 10:48:29;;;;;;;5.28;2.88;;;8.50;99.90;;;;;;4981194;28;20098;-84
2021/12/19 10:51:04;;;;;;;5.15;2.40;;;8.60;99.90;;;;;;4980296;28;20016;-86
2021/12/19 10:53:40;;;;;;;5.55;2.33;;;8.60;99.90;;;;;;4980028;28;20031;-85
2021/12/19 10:56:16;;;;;;;5.53;2.50;;;8.60;99.90;;;;;;4963611;28;20016;-84
2021/12/19 10:58:53;;;;;;;3.15;2.28;;;8.60;99.90;;;;;;4972437;28;20065;-86
2021/12/19 11:01:33;;;;;;;3.43;2.03;;;8.50;99.90;;;;;;4965257;28;20031;-82
2021/12/19 11:04:34;;;;;;;8.57;2.63;;;8.50;99.90;;;;;;4963241;28;20271;-83
2021/12/19 11:07:02;;;;;;;10.63;3.25;;;8.50;99.90;;;;;;4930391;29;20044;-86
2021/12/19 11:09:31;;;;;;;4.95;1.90;;;8.50;99.90;;;;;;4963227;28;20058;-83
2021/12/19 11:11:57;;;;;;;;;;;8.50;99.90;;;;;;4980107;28;20043;-84
2021/12/19 11:14:43;;;;;;;4.13;2.30;;;8.60;99.90;;;;;;4963436;28;19895;-88
2021/12/19 11:17:18;;;;;;;7.53;2.92;;;8.60;99.90;;;;;;4969950;28;20106;-83
2021/12/19 11:19:45;;;;;;;5.60;2.70;;;8.50;99.90;;;;;;4962375;28;20039;-84
2021/12/19 11:22:12;;;;;;;4.07;1.08;;;8.50;99.90;;;;;;4975248;28;20030;-83
2021/12/19 11:24:38;;;;;;;9.30;2.33;;;8.50;99.90;;;;;;4979510;28;20012;-86
2021/12/19 11:27:07;;;;;;;6.45;2.17;;;8.50;99.90;;;;;;4977154;28;20038;-83
2021/12/19 11:29:32;;;;;;;;;;;8.50;99.90;;;;;;4964797;28;20027;-84
2021/12/19 11:32:06;;;;;;;10.07;2.17;;;8.50;99.90;;;;;;4967740;28;19906;-82
2021/12/19 11:35:05;;;;;;;6.03;1.95;;;8.50;99.90;;;;;;4982954;28;20007;-82
2021/12/19 11:37:41;;;;;;;11.38;3.00;;;8.50;99.90;;;;;;4929020;28;20047;-85
2021/12/19 11:40:09;;;;;;;6.65;2.47;;;8.50;99.90;;;;;;4961809;28;20030;-81
2021/12/19 11:42:39;;;;;;;10.18;2.00;;;8.50;99.90;;;;;;4983990;28;20011;-82
2021/12/19 11:45:27;;;;;;;13.13;2.40;;;8.50;99.90;;;;;;4983430;28;20062;-83
2021/12/19 11:48:03;;;;;;;18.83;2.75;;;8.50;99.90;;;;;;4981439;28;20030;-85
2021/12/19 11:50:32;;;;;;;7.32;2.95;;;8.60;99.90;;;;;;4981979;28;20035;-84
2021/12/19 11:53:08;;;;;;;5.72;2.28;;;8.60;99.90;;;;;;4982019;28;20038;-82
2021/12/19 11:55:58;;;;;;;7.72;2.40;;;8.60;99.90;;;;;;4981428;28;20198;-82
2021/12/19 11:58:29;;;;;;;4.53;1.65;;;8.50;99.90;;;;;;4979046;28;20018;-80
2021/12/19 12:00:57;;;;;;;5.10;1.75;;;8.40;99.90;;;;;;4982030;28;20008;-82
2021/12/19 12:03:38;;;;;;;7.13;2.40;;;8.50;99.90;;;;;;4964976;29;20047;-80
2021/12/19 12:06:21;;;;;;;9.00;2.03;;;8.50;99.90;;;;;;4962143;28;20031;-82
2021/12/19 12:09:22;;;;;;;9.27;1.85;;;8.50;99.90;;;;;;4975724;28;20495;-80
2021/12/19 12:12:20;;;;;;;2.38;1.75;;;8.40;99.90;;;;;;4948952;29;20400;-81
2021/12/19 12:14:58;;;;;;;10.77;1.83;;;8.40;99.90;;;;;;4951465;29;20105;-80
2021/12/19 12:17:37;;;;;;;5.07;2.17;;;8.30;99.90;;;;;;4942275;29;20028;-81
2021/12/19 12:20:20;;;;;;;14.27;3.10;;;8.20;99.90;;;;;;4947584;29;20118;-81
2021/12/19 12:22:58;;;;;;;9.20;1.77;;;8.10;99.90;;;;;;4956824;29;20032;-81
2021/12/19 12:25:32;;;;;;;6.20;1.50;;;8.10;99.90;;;;;;4942454;29;20436;-79
2021/12/19 12:28:12;;;;;;;4.15;1.23;;;8.20;99.90;;;;;;4938606;29;20456;-80
2021/12/19 12:30:41;;;;;;;1.90;1.33;;;8.10;99.90;;;;;;4940762;29;20031;-80
2021/12/19 12:33:20;;;;;;;3.55;1.17;;;8.20;99.90;;;;;;4939401;29;20504;-80
2021/12/19 12:35:49;;;;;;;2.03;1.08;;;8.20;99.90;;;;;;4940838;29;20024;-80
2021/12/19 12:38:16;;;;;;;1.52;0.80;;;8.30;99.90;;;;;;4955505;29;20043;-81
2021/12/19 12:40:55;;;;;;;4.20;1.33;;;8.30;99.90;;;;;;4958711;29;20026;-81
2021/12/19 12:43:34;;;;;;;7.43;1.55;;;8.30;99.90;;;;;;4937762;29;20047;-80
2021/12/19 12:46:15;;;;;;;3.67;1.02;;;8.30;99.90;;;;;;4951028;29;20504;-81
2021/12/19 12:49:02;;;;;;;3.00;1.33;;;8.30;99.90;;;;;;4957644;29;20031;-81
2021/12/19 12:51:40;;;;;;;2.20;1.20;;;8.30;99.90;;;;;;4958128;29;20357;-80
2021/12/19 12:54:36;;;;;;;3.50;1.35;;;8.20;99.90;;;;;;4958362;29;20024;-80
2021/12/19 12:57:10;;;;;;;5.00;1.33;;;8.20;99.90;;;;;;4940041;29;20042;-80
2021/12/19 13:00:02;;;;;;;6.85;1.67;;;8.20;99.90;;;;;;4956612;29;20028;-79
2021/12/19 13:02:41;;;;;;;4.25;1.77;;;8.20;99.90;;;;;;4957502;29;20030;-80
2021/12/19 13:05:11;;;;;;;;;;;8.20;99.90;;;;;;4949020;29;20408;-81
2021/12/19 13:07:36;;;;;;;5.97;1.27;;;8.10;99.90;;;;;;4957078;29;20397;-81
2021/12/19 13:10:03;;;;;;;3.60;1.30;;;8.10;99.90;;;;;;4939956;29;20104;-80
2021/12/19 13:12:41;;;;;;;4.60;0.98;;;8.10;99.90;;;;;;4957815;29;20124;-80
2021/12/19 13:15:12;;;;;;;3.63;1.15;;;8.10;99.90;;;;;;4941187;28;20035;-79
2021/12/19 13:18:00;;;;;;;4.72;1.45;;;8.20;99.90;;;;;;4957588;29;20035;-81
2021/12/19 13:20:31;;;;;;;10.27;1.77;;;8.30;99.90;;;;;;4957848;29;20050;-81
2021/12/19 13:25:53;;;;;;;7.03;1.67;;;8.40;99.90;;;;;;4960509;28;20038;-78
2021/12/19 13:28:22;;;;;;;4.70;1.83;;;8.40;99.90;;;;;;4958955;29;20031;-80
2021/12/19 13:30:48;;;;;;;6.95;1.48;;;8.50;99.90;;;;;;4936702;29;20028;-85
2021/12/19 13:33:19;;;;;;;5.50;2.10;;;8.40;99.90;;;;;;4957289;29;20083;-87
2021/12/19 13:35:47;;;;;;;9.20;1.70;;;8.40;99.90;;;;;;4972342;28;20031;-81
2021/12/19 13:40:51;;;;;;;1.92;1.50;;;8.40;99.90;;;;;;4998163;23;20059;-38
2021/12/19 13:43:19;;;;;;;1.90;1.60;;;8.40;99.90;;;;;;4953940;28;20042;-36
2021/12/19 13:45:45;;;;;;;5.25;1.88;;;8.50;99.90;;;;;;4955336;29;20553;-38
2021/12/19 13:48:18;;;;;;;3.92;2.00;;;8.40;99.90;;;;;;4955446;29;20039;-38
2021/12/19 13:50:49;;;;;;;4.13;1.90;;;8.40;99.90;;;;;;4937455;29;20483;-38
2021/12/19 13:53:16;;;;;;;3.53;1.70;;;8.40;99.90;;;;;;4954807;28;20387;-37
2021/12/19 13:55:51;;;;;;;5.68;2.10;;;8.40;99.90;;;;;;4955095;29;20391;-39
2021/12/19 13:58:18;;;;;;;6.32;1.67;;;8.40;99.90;;;;;;4954050;29;20035;-37
2021/12/19 14:00:48;;;;;;;7.70;1.65;;;8.40;99.90;;;;;;4937564;29;20047;-38
2021/12/19 14:03:14;;;;;;;4.10;1.73;;;8.40;99.90;;;;;;4954531;28;20501;-43
2021/12/19 14:05:46;;;;;;;10.27;2.58;;;8.40;99.90;;;;;;4954904;28;20039;-38
2021/12/19 14:08:22;;;;;;;5.93;2.30;;;8.50;99.90;;;;;;4953267;29;20039;-37
2021/12/19 14:11:21;;;;;;;9.82;2.20;;;8.50;99.90;;;;;;4952905;28;20058;-38
2021/12/19 14:14:02;;;;;;;4.85;2.60;;;8.50;99.90;;;;;;4922855;28;20039;-39
2021/12/19 14:16:45;;;;;;;4.82;2.05;;;8.50;99.90;;;;;;4954166;28;20069;-38
2021/12/19 14:19:33;;;;;;;6.68;1.13;;;8.40;99.90;;;;;;4954632;29;20092;-47